LEMH/MAH METAR and TAF weather

Enter ICAO airport designator
Station Type Date Time Source
LEMH METAR 2020/07/05 03:00 UTC NOAA

LEMH 050300Z AUTO /////KT CAVOK ///// Q1020


Station Type Date Time Source
LEMH Decoded METAR 2020/07/05 03:00 UTC NOAA

Menorca / Mahon, Spain (LEMH) 39-52N 004-14E 82M
Jul 04, 2020 - 11:00 PM EDT / 2020.07.05 0300 UTC
Visibility: greater than 7 mile(s):0
Pressure (altimeter): 30.12 in. Hg (1020 hPa)
ob: LEMH 050300Z AUTO /////KT CAVOK ///// Q1020
cycle: 3

Station Type Date Time Source
LEMH TAF 2020/07/05 03:27 UTC NOAA

TAF LEMH 050200Z 0503/0603 32006KT 9999 SCT020 TX31/0512Z TN20/0505Z
BECMG 0506/0508 34012KT
BECMG 0518/0520 27005KT

Example: see airport list